sensor_id;sensor_type;location;lat;lon;timestamp;P1;durP1;ratioP1;P2;durP2;ratioP2
12359;SDS011;6244;51.460;7.090;2022-10-16T00:03:38;1131.53;;;722.20;;
12359;SDS011;6244;51.460;7.090;2022-10-16T00:08:35;1126.30;;;710.92;;
12359;SDS011;6244;51.460;7.090;2022-10-16T00:13:34;1129.30;;;713.85;;
12359;SDS011;6244;51.460;7.090;2022-10-16T00:18:32;1130.57;;;722.65;;
12359;SDS011;6244;51.460;7.090;2022-10-16T00:23:29;1131.70;;;708.10;;
12359;SDS011;6244;51.460;7.090;2022-10-16T00:28:25;1132.60;;;692.37;;
12359;SDS011;6244;51.460;7.090;2022-10-16T00:33:24;1132.60;;;691.90;;
12359;SDS011;6244;51.460;7.090;2022-10-16T00:38:21;1129.10;;;685.40;;
12359;SDS011;6244;51.460;7.090;2022-10-16T00:43:32;1131.87;;;690.53;;
12359;SDS011;6244;51.460;7.090;2022-10-16T00:48:33;1131.57;;;687.57;;
12359;SDS011;6244;51.460;7.090;2022-10-16T00:53:30;1132.20;;;692.72;;
12359;SDS011;6244;51.460;7.090;2022-10-16T00:58:27;1128.75;;;681.88;;
12359;SDS011;6244;51.460;7.090;2022-10-16T01:03:31;1130.05;;;683.53;;
12359;SDS011;6244;51.460;7.090;2022-10-16T01:08:31;1130.68;;;681.90;;
12359;SDS011;6244;51.460;7.090;2022-10-16T01:13:35;1129.93;;;684.97;;
12359;SDS011;6244;51.460;7.090;2022-10-16T01:18:37;1125.75;;;666.28;;
12359;SDS011;6244;51.460;7.090;2022-10-16T01:23:43;1128.63;;;679.50;;
12359;SDS011;6244;51.460;7.090;2022-10-16T01:28:51;1126.25;;;671.10;;
12359;SDS011;6244;51.460;7.090;2022-10-16T01:33:51;1128.43;;;684.67;;
12359;SDS011;6244;51.460;7.090;2022-10-16T01:38:56;1126.47;;;680.37;;
12359;SDS011;6244;51.460;7.090;2022-10-16T01:44:00;1132.68;;;697.05;;
12359;SDS011;6244;51.460;7.090;2022-10-16T01:49:00;1128.88;;;690.65;;
12359;SDS011;6244;51.460;7.090;2022-10-16T01:54:00;1127.40;;;683.83;;
12359;SDS011;6244;51.460;7.090;2022-10-16T01:59:02;1125.57;;;677.83;;
12359;SDS011;6244;51.460;7.090;2022-10-16T02:04:03;1125.00;;;676.30;;
12359;SDS011;6244;51.460;7.090;2022-10-16T02:09:06;1123.68;;;675.58;;
12359;SDS011;6244;51.460;7.090;2022-10-16T02:14:04;1126.53;;;682.65;;
12359;SDS011;6244;51.460;7.090;2022-10-16T02:19:02;1126.43;;;680.95;;
12359;SDS011;6244;51.460;7.090;2022-10-16T02:24:00;1128.18;;;691.30;;
12359;SDS011;6244;51.460;7.090;2022-10-16T02:29:05;1127.93;;;688.88;;
12359;SDS011;6244;51.460;7.090;2022-10-16T02:34:06;1123.65;;;672.78;;
12359;SDS011;6244;51.460;7.090;2022-10-16T02:39:06;1128.25;;;693.92;;
12359;SDS011;6244;51.460;7.090;2022-10-16T02:44:05;1124.22;;;677.58;;
12359;SDS011;6244;51.460;7.090;2022-10-16T02:49:02;1126.28;;;681.63;;
12359;SDS011;6244;51.460;7.090;2022-10-16T02:53:58;1121.15;;;669.05;;
12359;SDS011;6244;51.460;7.090;2022-10-16T02:58:55;1125.63;;;685.10;;
12359;SDS011;6244;51.460;7.090;2022-10-16T03:03:53;1122.32;;;676.53;;
12359;SDS011;6244;51.460;7.090;2022-10-16T03:08:49;1125.68;;;688.55;;
12359;SDS011;6244;51.460;7.090;2022-10-16T03:13:46;1122.75;;;673.55;;
12359;SDS011;6244;51.460;7.090;2022-10-16T03:18:42;1125.20;;;681.57;;
12359;SDS011;6244;51.460;7.090;2022-10-16T03:23:40;1123.07;;;674.53;;
12359;SDS011;6244;51.460;7.090;2022-10-16T03:28:37;1124.37;;;683.07;;
12359;SDS011;6244;51.460;7.090;2022-10-16T03:33:33;1127.22;;;690.60;;
12359;SDS011;6244;51.460;7.090;2022-10-16T03:38:30;1120.20;;;660.08;;
12359;SDS011;6244;51.460;7.090;2022-10-16T03:43:28;1121.20;;;666.67;;
12359;SDS011;6244;51.460;7.090;2022-10-16T03:48:25;1117.90;;;655.03;;
12359;SDS011;6244;51.460;7.090;2022-10-16T03:53:21;1121.47;;;671.33;;
12359;SDS011;6244;51.460;7.090;2022-10-16T03:58:17;1121.97;;;674.22;;
12359;SDS011;6244;51.460;7.090;2022-10-16T04:03:16;1121.87;;;672.53;;
12359;SDS011;6244;51.460;7.090;2022-10-16T04:08:14;1126.22;;;680.75;;
12359;SDS011;6244;51.460;7.090;2022-10-16T04:13:10;1122.90;;;663.35;;
12359;SDS011;6244;51.460;7.090;2022-10-16T04:18:07;1125.63;;;673.83;;
12359;SDS011;6244;51.460;7.090;2022-10-16T04:23:05;1124.43;;;667.20;;
12359;SDS011;6244;51.460;7.090;2022-10-16T04:28:01;1122.82;;;664.45;;
12359;SDS011;6244;51.460;7.090;2022-10-16T04:32:58;1119.25;;;659.50;;
12359;SDS011;6244;51.460;7.090;2022-10-16T04:37:56;1119.95;;;656.35;;
12359;SDS011;6244;51.460;7.090;2022-10-16T04:42:54;1120.37;;;656.77;;
12359;SDS011;6244;51.460;7.090;2022-10-16T04:47:51;1121.18;;;649.33;;
12359;SDS011;6244;51.460;7.090;2022-10-16T04:52:47;1120.97;;;650.77;;
12359;SDS011;6244;51.460;7.090;2022-10-16T04:57:44;1122.00;;;653.58;;
12359;SDS011;6244;51.460;7.090;2022-10-16T05:02:41;1121.32;;;655.58;;
12359;SDS011;6244;51.460;7.090;2022-10-16T05:07:38;1121.45;;;652.33;;
12359;SDS011;6244;51.460;7.090;2022-10-16T05:12:34;1118.65;;;660.97;;
12359;SDS011;6244;51.460;7.090;2022-10-16T05:17:31;1120.60;;;654.22;;
12359;SDS011;6244;51.460;7.090;2022-10-16T05:22:29;1118.53;;;645.40;;
12359;SDS011;6244;51.460;7.090;2022-10-16T05:27:25;1118.90;;;646.63;;
12359;SDS011;6244;51.460;7.090;2022-10-16T05:32:22;1120.25;;;656.90;;
12359;SDS011;6244;51.460;7.090;2022-10-16T05:37:18;1120.65;;;655.03;;
12359;SDS011;6244;51.460;7.090;2022-10-16T05:42:16;1119.67;;;651.63;;
12359;SDS011;6244;51.460;7.090;2022-10-16T05:47:13;1120.00;;;656.80;;
12359;SDS011;6244;51.460;7.090;2022-10-16T05:52:09;1121.90;;;665.58;;
12359;SDS011;6244;51.460;7.090;2022-10-16T05:57:06;1122.00;;;653.22;;
12359;SDS011;6244;51.460;7.090;2022-10-16T06:02:04;1118.35;;;639.17;;
12359;SDS011;6244;51.460;7.090;2022-10-16T06:07:00;1121.30;;;635.97;;
12359;SDS011;6244;51.460;7.090;2022-10-16T06:11:57;1118.57;;;638.15;;
12359;SDS011;6244;51.460;7.090;2022-10-16T06:16:53;1115.83;;;640.83;;
12359;SDS011;6244;51.460;7.090;2022-10-16T06:21:51;1122.00;;;650.83;;
12359;SDS011;6244;51.460;7.090;2022-10-16T06:26:47;1120.68;;;647.53;;
12359;SDS011;6244;51.460;7.090;2022-10-16T06:31:44;1122.83;;;655.70;;
12359;SDS011;6244;51.460;7.090;2022-10-16T06:36:40;1118.90;;;641.57;;
12359;SDS011;6244;51.460;7.090;2022-10-16T06:41:39;1118.68;;;647.60;;
12359;SDS011;6244;51.460;7.090;2022-10-16T06:46:36;1115.77;;;638.73;;
12359;SDS011;6244;51.460;7.090;2022-10-16T06:51:32;1119.53;;;650.47;;
12359;SDS011;6244;51.460;7.090;2022-10-16T06:56:31;1119.35;;;642.15;;
12359;SDS011;6244;51.460;7.090;2022-10-16T07:01:31;1117.95;;;646.60;;
12359;SDS011;6244;51.460;7.090;2022-10-16T07:06:30;1118.55;;;641.10;;
12359;SDS011;6244;51.460;7.090;2022-10-16T07:11:27;1121.97;;;664.88;;
12359;SDS011;6244;51.460;7.090;2022-10-16T07:16:24;1121.88;;;649.00;;
12359;SDS011;6244;51.460;7.090;2022-10-16T07:21:24;1115.37;;;651.60;;
12359;SDS011;6244;51.460;7.090;2022-10-16T07:26:24;1115.43;;;649.55;;
12359;SDS011;6244;51.460;7.090;2022-10-16T07:31:21;1114.27;;;653.07;;
12359;SDS011;6244;51.460;7.090;2022-10-16T07:36:19;1116.60;;;662.22;;
12359;SDS011;6244;51.460;7.090;2022-10-16T07:41:18;1114.72;;;651.50;;
12359;SDS011;6244;51.460;7.090;2022-10-16T07:46:15;1118.95;;;660.58;;
12359;SDS011;6244;51.460;7.090;2022-10-16T07:51:13;1121.82;;;675.65;;
12359;SDS011;6244;51.460;7.090;2022-10-16T07:56:11;1121.53;;;684.33;;
12359;SDS011;6244;51.460;7.090;2022-10-16T08:01:10;1126.23;;;700.13;;
12359;SDS011;6244;51.460;7.090;2022-10-16T08:06:08;1132.07;;;709.13;;
12359;SDS011;6244;51.460;7.090;2022-10-16T08:11:04;1132.55;;;723.65;;
12359;SDS011;6244;51.460;7.090;2022-10-16T08:16:01;1142.20;;;753.92;;
12359;SDS011;6244;51.460;7.090;2022-10-16T08:21:00;1145.45;;;757.83;;
12359;SDS011;6244;51.460;7.090;2022-10-16T08:26:01;1138.75;;;779.15;;
12359;SDS011;6244;51.460;7.090;2022-10-16T08:31:06;1135.93;;;780.72;;
12359;SDS011;6244;51.460;7.090;2022-10-16T08:36:06;1139.73;;;799.77;;
12359;SDS011;6244;51.460;7.090;2022-10-16T08:41:09;1146.47;;;791.78;;
12359;SDS011;6244;51.460;7.090;2022-10-16T08:46:18;1145.97;;;821.03;;
12359;SDS011;6244;51.460;7.090;2022-10-16T08:51:27;1143.57;;;841.00;;
12359;SDS011;6244;51.460;7.090;2022-10-16T08:56:27;1145.97;;;840.42;;
12359;SDS011;6244;51.460;7.090;2022-10-16T09:01:25;1146.73;;;843.90;;
12359;SDS011;6244;51.460;7.090;2022-10-16T09:06:37;1143.17;;;837.47;;
12359;SDS011;6244;51.460;7.090;2022-10-16T09:11:44;1149.57;;;822.72;;
12359;SDS011;6244;51.460;7.090;2022-10-16T09:16:48;1143.73;;;809.80;;
12359;SDS011;6244;51.460;7.090;2022-10-16T09:21:51;1145.67;;;823.30;;
12359;SDS011;6244;51.460;7.090;2022-10-16T09:26:48;1142.93;;;838.67;;
12359;SDS011;6244;51.460;7.090;2022-10-16T09:31:44;1142.47;;;835.40;;
12359;SDS011;6244;51.460;7.090;2022-10-16T09:36:41;1142.28;;;841.72;;
12359;SDS011;6244;51.460;7.090;2022-10-16T09:41:42;1141.45;;;847.08;;
12359;SDS011;6244;51.460;7.090;2022-10-16T09:46:40;1135.57;;;825.17;;
12359;SDS011;6244;51.460;7.090;2022-10-16T09:51:37;1137.22;;;836.22;;
12359;SDS011;6244;51.460;7.090;2022-10-16T09:56:34;1137.72;;;838.72;;
12359;SDS011;6244;51.460;7.090;2022-10-16T10:01:36;1133.10;;;827.65;;
12359;SDS011;6244;51.460;7.090;2022-10-16T10:06:35;1135.72;;;831.10;;
12359;SDS011;6244;51.460;7.090;2022-10-16T10:11:40;1141.50;;;839.45;;
12359;SDS011;6244;51.460;7.090;2022-10-16T10:16:50;1140.90;;;835.97;;
12359;SDS011;6244;51.460;7.090;2022-10-16T10:21:47;1140.80;;;840.07;;
12359;SDS011;6244;51.460;7.090;2022-10-16T10:26:52;1137.25;;;830.65;;
12359;SDS011;6244;51.460;7.090;2022-10-16T10:32:00;1140.03;;;861.43;;
12359;SDS011;6244;51.460;7.090;2022-10-16T10:37:09;1139.22;;;872.70;;
12359;SDS011;6244;51.460;7.090;2022-10-16T10:42:25;1132.47;;;872.33;;
12359;SDS011;6244;51.460;7.090;2022-10-16T10:47:35;1133.45;;;858.10;;
12359;SDS011;6244;51.460;7.090;2022-10-16T10:52:43;1134.22;;;872.38;;
12359;SDS011;6244;51.460;7.090;2022-10-16T11:03:16;1134.10;;;881.60;;
12359;SDS011;6244;51.460;7.090;2022-10-16T11:08:26;1136.55;;;865.50;;
12359;SDS011;6244;51.460;7.090;2022-10-16T11:13:28;1134.77;;;871.33;;
12359;SDS011;6244;51.460;7.090;2022-10-16T11:18:32;1135.80;;;880.25;;
12359;SDS011;6244;51.460;7.090;2022-10-16T11:23:35;1132.27;;;907.23;;
12359;SDS011;6244;51.460;7.090;2022-10-16T11:28:39;1135.88;;;892.83;;
12359;SDS011;6244;51.460;7.090;2022-10-16T11:33:43;1138.13;;;870.25;;
12359;SDS011;6244;51.460;7.090;2022-10-16T11:38:47;1133.93;;;868.47;;
12359;SDS011;6244;51.460;7.090;2022-10-16T11:43:51;1134.40;;;879.63;;
12359;SDS011;6244;51.460;7.090;2022-10-16T11:49:00;1130.80;;;881.07;;
12359;SDS011;6244;51.460;7.090;2022-10-16T11:54:07;1128.00;;;881.60;;
12359;SDS011;6244;51.460;7.090;2022-10-16T11:59:13;1127.72;;;887.95;;
12359;SDS011;6244;51.460;7.090;2022-10-16T12:04:21;1126.10;;;887.05;;
12359;SDS011;6244;51.460;7.090;2022-10-16T12:09:24;1137.43;;;884.72;;
12359;SDS011;6244;51.460;7.090;2022-10-16T12:14:34;1132.60;;;871.33;;
12359;SDS011;6244;51.460;7.090;2022-10-16T12:19:36;1135.65;;;881.97;;
12359;SDS011;6244;51.460;7.090;2022-10-16T12:24:34;1132.93;;;880.55;;
12359;SDS011;6244;51.460;7.090;2022-10-16T12:29:33;1134.57;;;871.35;;
12359;SDS011;6244;51.460;7.090;2022-10-16T12:34:37;1143.32;;;858.42;;
12359;SDS011;6244;51.460;7.090;2022-10-16T12:39:36;1142.40;;;862.20;;
12359;SDS011;6244;51.460;7.090;2022-10-16T12:44:33;1145.33;;;850.57;;
12359;SDS011;6244;51.460;7.090;2022-10-16T12:49:35;1146.20;;;815.07;;
12359;SDS011;6244;51.460;7.090;2022-10-16T12:54:43;1145.43;;;822.97;;
12359;SDS011;6244;51.460;7.090;2022-10-16T12:59:42;1145.93;;;824.30;;
12359;SDS011;6244;51.460;7.090;2022-10-16T13:04:50;1141.25;;;814.58;;
12359;SDS011;6244;51.460;7.090;2022-10-16T13:10:02;1141.55;;;824.45;;
12359;SDS011;6244;51.460;7.090;2022-10-16T13:15:22;1141.45;;;821.63;;
12359;SDS011;6244;51.460;7.090;2022-10-16T13:20:31;1137.73;;;803.27;;
12359;SDS011;6244;51.460;7.090;2022-10-16T13:25:34;1139.25;;;812.22;;
12359;SDS011;6244;51.460;7.090;2022-10-16T13:30:39;1139.43;;;812.72;;
12359;SDS011;6244;51.460;7.090;2022-10-16T13:35:46;1139.50;;;818.63;;
12359;SDS011;6244;51.460;7.090;2022-10-16T13:40:48;1140.50;;;821.28;;
12359;SDS011;6244;51.460;7.090;2022-10-16T13:45:53;1138.20;;;804.53;;
12359;SDS011;6244;51.460;7.090;2022-10-16T13:51:02;1136.00;;;809.10;;
12359;SDS011;6244;51.460;7.090;2022-10-16T13:56:04;1135.57;;;808.50;;
12359;SDS011;6244;51.460;7.090;2022-10-16T14:01:03;1135.68;;;810.65;;
12359;SDS011;6244;51.460;7.090;2022-10-16T14:06:03;1136.97;;;813.10;;
12359;SDS011;6244;51.460;7.090;2022-10-16T14:11:08;1133.25;;;805.13;;
12359;SDS011;6244;51.460;7.090;2022-10-16T14:16:06;1133.90;;;830.65;;
12359;SDS011;6244;51.460;7.090;2022-10-16T14:21:07;1137.85;;;839.75;;
12359;SDS011;6244;51.460;7.090;2022-10-16T14:26:12;1133.87;;;832.67;;
12359;SDS011;6244;51.460;7.090;2022-10-16T14:31:24;1129.77;;;822.60;;
12359;SDS011;6244;51.460;7.090;2022-10-16T14:36:24;1129.30;;;814.38;;
12359;SDS011;6244;51.460;7.090;2022-10-16T14:41:22;1133.37;;;810.37;;
12359;SDS011;6244;51.460;7.090;2022-10-16T14:46:20;1123.13;;;817.75;;
12359;SDS011;6244;51.460;7.090;2022-10-16T14:51:20;1129.47;;;829.53;;
12359;SDS011;6244;51.460;7.090;2022-10-16T14:56:19;1133.50;;;805.47;;
12359;SDS011;6244;51.460;7.090;2022-10-16T15:01:18;1133.65;;;814.35;;
12359;SDS011;6244;51.460;7.090;2022-10-16T15:06:15;1132.30;;;802.22;;
12359;SDS011;6244;51.460;7.090;2022-10-16T15:11:12;1130.30;;;804.95;;
12359;SDS011;6244;51.460;7.090;2022-10-16T15:16:12;1131.27;;;808.77;;
12359;SDS011;6244;51.460;7.090;2022-10-16T15:21:11;1133.07;;;804.80;;
12359;SDS011;6244;51.460;7.090;2022-10-16T15:26:17;1133.05;;;805.13;;
12359;SDS011;6244;51.460;7.090;2022-10-16T15:31:15;1132.10;;;803.75;;
12359;SDS011;6244;51.460;7.090;2022-10-16T15:36:12;1133.33;;;802.33;;
12359;SDS011;6244;51.460;7.090;2022-10-16T15:41:08;1131.53;;;792.97;;
12359;SDS011;6244;51.460;7.090;2022-10-16T15:46:05;1134.60;;;798.35;;
12359;SDS011;6244;51.460;7.090;2022-10-16T15:51:07;1131.40;;;791.45;;
12359;SDS011;6244;51.460;7.090;2022-10-16T15:56:04;1129.38;;;782.63;;
12359;SDS011;6244;51.460;7.090;2022-10-16T16:01:01;1130.20;;;779.23;;
12359;SDS011;6244;51.460;7.090;2022-10-16T16:06:03;1129.53;;;784.17;;
12359;SDS011;6244;51.460;7.090;2022-10-16T16:11:03;1132.00;;;797.95;;
12359;SDS011;6244;51.460;7.090;2022-10-16T16:16:01;1129.05;;;780.00;;
12359;SDS011;6244;51.460;7.090;2022-10-16T16:21:02;1131.43;;;785.03;;
12359;SDS011;6244;51.460;7.090;2022-10-16T16:26:07;1139.37;;;793.70;;
12359;SDS011;6244;51.460;7.090;2022-10-16T16:31:06;1140.85;;;800.13;;
12359;SDS011;6244;51.460;7.090;2022-10-16T16:36:04;1139.32;;;793.60;;
12359;SDS011;6244;51.460;7.090;2022-10-16T16:41:11;1139.13;;;793.65;;
12359;SDS011;6244;51.460;7.090;2022-10-16T16:46:09;1144.18;;;799.15;;
12359;SDS011;6244;51.460;7.090;2022-10-16T16:51:07;1143.57;;;810.83;;
12359;SDS011;6244;51.460;7.090;2022-10-16T16:56:11;1142.72;;;817.65;;
12359;SDS011;6244;51.460;7.090;2022-10-16T17:01:09;1141.28;;;808.05;;
12359;SDS011;6244;51.460;7.090;2022-10-16T17:06:07;1139.35;;;809.40;;
12359;SDS011;6244;51.460;7.090;2022-10-16T17:11:04;1140.80;;;817.00;;
12359;SDS011;6244;51.460;7.090;2022-10-16T17:16:03;1135.90;;;795.70;;
12359;SDS011;6244;51.460;7.090;2022-10-16T17:21:01;1133.45;;;781.08;;
12359;SDS011;6244;51.460;7.090;2022-10-16T17:26:02;1133.47;;;784.97;;
12359;SDS011;6244;51.460;7.090;2022-10-16T17:31:08;1137.47;;;796.25;;
12359;SDS011;6244;51.460;7.090;2022-10-16T17:36:06;1134.57;;;779.35;;
12359;SDS011;6244;51.460;7.090;2022-10-16T17:41:11;1137.85;;;785.92;;
12359;SDS011;6244;51.460;7.090;2022-10-16T17:46:11;1135.77;;;779.73;;
12359;SDS011;6244;51.460;7.090;2022-10-16T17:51:10;1135.22;;;774.35;;
12359;SDS011;6244;51.460;7.090;2022-10-16T17:56:12;1130.28;;;763.50;;
12359;SDS011;6244;51.460;7.090;2022-10-16T18:01:14;1131.97;;;770.58;;
12359;SDS011;6244;51.460;7.090;2022-10-16T18:06:12;1135.13;;;786.83;;
12359;SDS011;6244;51.460;7.090;2022-10-16T18:11:08;1129.93;;;770.85;;
12359;SDS011;6244;51.460;7.090;2022-10-16T18:16:05;1130.68;;;775.58;;
12359;SDS011;6244;51.460;7.090;2022-10-16T18:21:06;1126.38;;;760.28;;
12359;SDS011;6244;51.460;7.090;2022-10-16T18:26:05;1131.38;;;778.92;;
12359;SDS011;6244;51.460;7.090;2022-10-16T18:31:04;1128.25;;;768.65;;
12359;SDS011;6244;51.460;7.090;2022-10-16T18:36:02;1129.37;;;775.27;;
12359;SDS011;6244;51.460;7.090;2022-10-16T18:41:02;1126.68;;;762.75;;
12359;SDS011;6244;51.460;7.090;2022-10-16T18:46:00;1124.05;;;753.28;;
12359;SDS011;6244;51.460;7.090;2022-10-16T18:51:05;1128.50;;;753.60;;
12359;SDS011;6244;51.460;7.090;2022-10-16T18:56:05;1127.10;;;753.00;;
12359;SDS011;6244;51.460;7.090;2022-10-16T19:01:03;1130.47;;;768.42;;
12359;SDS011;6244;51.460;7.090;2022-10-16T19:06:00;1128.40;;;766.47;;
12359;SDS011;6244;51.460;7.090;2022-10-16T19:11:00;1126.30;;;757.78;;
12359;SDS011;6244;51.460;7.090;2022-10-16T19:15:59;1126.67;;;754.00;;
12359;SDS011;6244;51.460;7.090;2022-10-16T19:20:59;1139.50;;;747.13;;
12359;SDS011;6244;51.460;7.090;2022-10-16T19:25:59;1144.30;;;749.90;;
12359;SDS011;6244;51.460;7.090;2022-10-16T19:31:01;1147.43;;;749.10;;
12359;SDS011;6244;51.460;7.090;2022-10-16T19:36:08;1145.57;;;747.40;;
12359;SDS011;6244;51.460;7.090;2022-10-16T19:41:06;1139.43;;;736.72;;
12359;SDS011;6244;51.460;7.090;2022-10-16T19:46:05;1143.07;;;749.65;;
12359;SDS011;6244;51.460;7.090;2022-10-16T19:51:03;1137.83;;;738.10;;
12359;SDS011;6244;51.460;7.090;2022-10-16T19:56:00;1133.32;;;730.50;;
12359;SDS011;6244;51.460;7.090;2022-10-16T20:00:57;1132.78;;;740.63;;
12359;SDS011;6244;51.460;7.090;2022-10-16T20:05:55;1133.97;;;746.55;;
12359;SDS011;6244;51.460;7.090;2022-10-16T20:10:52;1136.07;;;754.30;;
12359;SDS011;6244;51.460;7.090;2022-10-16T20:15:50;1135.83;;;755.93;;
12359;SDS011;6244;51.460;7.090;2022-10-16T20:20:47;1137.15;;;767.08;;
12359;SDS011;6244;51.460;7.090;2022-10-16T20:25:46;1138.53;;;763.10;;
12359;SDS011;6244;51.460;7.090;2022-10-16T20:30:43;1134.13;;;746.20;;
12359;SDS011;6244;51.460;7.090;2022-10-16T20:35:42;1139.40;;;755.10;;
12359;SDS011;6244;51.460;7.090;2022-10-16T20:40:40;1133.07;;;742.10;;
12359;SDS011;6244;51.460;7.090;2022-10-16T20:45:39;1137.80;;;749.20;;
12359;SDS011;6244;51.460;7.090;2022-10-16T20:50:36;1134.75;;;752.47;;
12359;SDS011;6244;51.460;7.090;2022-10-16T20:55:34;1135.07;;;749.87;;
12359;SDS011;6244;51.460;7.090;2022-10-16T21:00:31;1132.50;;;748.22;;
12359;SDS011;6244;51.460;7.090;2022-10-16T21:05:29;1133.07;;;751.87;;
12359;SDS011;6244;51.460;7.090;2022-10-16T21:10:28;1128.78;;;734.15;;
12359;SDS011;6244;51.460;7.090;2022-10-16T21:15:25;1133.30;;;743.53;;
12359;SDS011;6244;51.460;7.090;2022-10-16T21:20:21;1130.47;;;741.70;;
12359;SDS011;6244;51.460;7.090;2022-10-16T21:25:19;1130.70;;;744.42;;
12359;SDS011;6244;51.460;7.090;2022-10-16T21:30:15;1130.28;;;740.90;;
12359;SDS011;6244;51.460;7.090;2022-10-16T21:35:12;1130.50;;;748.53;;
12359;SDS011;6244;51.460;7.090;2022-10-16T21:40:09;1126.05;;;739.55;;
12359;SDS011;6244;51.460;7.090;2022-10-16T21:45:08;1126.13;;;734.17;;
12359;SDS011;6244;51.460;7.090;2022-10-16T21:50:05;1127.22;;;735.08;;
12359;SDS011;6244;51.460;7.090;2022-10-16T21:55:01;1125.30;;;730.47;;
12359;SDS011;6244;51.460;7.090;2022-10-16T21:59:58;1125.35;;;712.45;;
12359;SDS011;6244;51.460;7.090;2022-10-16T22:04:56;1122.75;;;717.03;;
12359;SDS011;6244;51.460;7.090;2022-10-16T22:09:52;1123.95;;;725.45;;
12359;SDS011;6244;51.460;7.090;2022-10-16T22:14:49;1123.35;;;718.50;;
12359;SDS011;6244;51.460;7.090;2022-10-16T22:19:45;1123.23;;;718.40;;
12359;SDS011;6244;51.460;7.090;2022-10-16T22:24:44;1126.27;;;726.90;;
12359;SDS011;6244;51.460;7.090;2022-10-16T22:29:40;1121.77;;;720.53;;
12359;SDS011;6244;51.460;7.090;2022-10-16T22:34:37;1124.93;;;734.22;;
12359;SDS011;6244;51.460;7.090;2022-10-16T22:39:34;1124.67;;;735.97;;
12359;SDS011;6244;51.460;7.090;2022-10-16T22:44:32;1122.97;;;721.03;;
12359;SDS011;6244;51.460;7.090;2022-10-16T22:49:28;1122.53;;;723.60;;
12359;SDS011;6244;51.460;7.090;2022-10-16T22:54:25;1123.72;;;728.88;;
12359;SDS011;6244;51.460;7.090;2022-10-16T22:59:21;1127.00;;;732.20;;
12359;SDS011;6244;51.460;7.090;2022-10-16T23:04:19;1121.93;;;717.10;;
12359;SDS011;6244;51.460;7.090;2022-10-16T23:09:15;1122.73;;;720.87;;
12359;SDS011;6244;51.460;7.090;2022-10-16T23:14:12;1123.03;;;720.17;;
12359;SDS011;6244;51.460;7.090;2022-10-16T23:19:09;1123.88;;;734.53;;
12359;SDS011;6244;51.460;7.090;2022-10-16T23:24:07;1123.25;;;732.28;;
12359;SDS011;6244;51.460;7.090;2022-10-16T23:29:03;1124.50;;;735.90;;
12359;SDS011;6244;51.460;7.090;2022-10-16T23:34:00;1120.53;;;711.50;;
12359;SDS011;6244;51.460;7.090;2022-10-16T23:38:57;1121.78;;;708.58;;
12359;SDS011;6244;51.460;7.090;2022-10-16T23:43:54;1122.32;;;715.20;;
12359;SDS011;6244;51.460;7.090;2022-10-16T23:48:51;1123.90;;;715.55;;
12359;SDS011;6244;51.460;7.090;2022-10-16T23:53:48;1122.18;;;714.05;;
12359;SDS011;6244;51.460;7.090;2022-10-16T23:58:46;1122.28;;;716.78;;
